Armuchee, Georgia
Current Conditions -  °F | °C
As of 7:23 PM on Sunday 23 Nov 2014 (Local Time) from KRMG Reporting Station
Overcast Overcast  
Wind Chill: 54°   Ceiling: 1400
Heat Index: 54°   Visibility: 10mi
Dew Point: 53°   Wind: 0mph
Humidity: 97%   Direction: NA
Pressure: 29.62"   Gusts: NA
Location:  34.39°N, 85.18°W
Report Text: KRMG 240023Z AUTO 00000KT 10SM SCT010 BKN014 OVC022 12/12 A2962 RMK AO2 T01220117
Loading
Personal Weather Stations






























Interactive Weather Map New forecast layout! Learn more

10-Day Weather Forecast

Advertisements
Track Severe Weather on mobile